Time;durP1;ratioP1;P1;durP2;ratioP2;P2;SDS_P1;SDS_P2;PMS_P1;PMS_P2;Temp;Humidity;BMP_temperature;BMP_pressure;BME280_temperature;BME280_humidity;BME280_pressure;Samples;Min_cycle;Max_cycle;Signal;HPM_P1;HPM_P2
2023/11/08 00:00:14;;;;;;;33.40;30.95;;;;;;;7.48;100.00;101195.03;5072187;28;20584;-76
2023/11/08 00:02:43;;;;;;;120.88;114.18;;;;;;;7.40;100.00;101189.75;5069569;28;20040;-76
2023/11/08 00:05:11;;;;;;;97.28;91.80;;;;;;;7.42;100.00;101186.97;5070993;28;20080;-76
2023/11/08 00:07:40;;;;;;;78.82;74.13;;;;;;;7.32;100.00;101187.16;5072656;28;20410;-76
2023/11/08 00:10:09;;;;;;;93.10;87.65;;;;;;;7.42;100.00;101179.84;5076878;28;20495;-77
2023/11/08 00:12:36;;;;;;;105.60;98.63;;;;;;;7.46;100.00;101182.97;5069298;28;20505;-76
2023/11/08 00:15:09;;;;;;;34.03;31.63;;;;;;;7.43;100.00;101181.50;5067420;28;20052;-76
2023/11/08 00:17:43;;;;;;;34.22;31.92;;;;;;;7.39;100.00;101169.63;5063775;28;20055;-76
2023/11/08 00:20:16;;;;;;;98.82;93.28;;;;;;;7.42;100.00;101158.72;5069199;28;20048;-77
2023/11/08 00:22:44;;;;;;;129.85;122.03;;;;;;;7.26;100.00;101156.13;5069812;28;20041;-78
2023/11/08 00:25:11;;;;;;;114.78;108.47;;;;;;;7.08;100.00;101149.31;5069366;28;20480;-76
2023/11/08 00:27:47;;;;;;;107.93;102.10;;;;;;;7.43;100.00;101136.56;5069871;28;20052;-76
2023/11/08 00:30:15;;;;;;;125.00;118.18;;;;;;;7.31;100.00;101122.91;5066644;28;20052;-77
2023/11/08 00:32:43;;;;;;;116.57;110.38;;;;;;;7.29;100.00;101113.50;5066826;28;20047;-76
2023/11/08 00:35:10;;;;;;;32.65;30.30;;;;;;;7.40;100.00;101121.06;5069168;28;20056;-77
2023/11/08 00:37:37;;;;;;;27.98;25.98;;;;;;;7.41;100.00;101120.03;5065392;28;20037;-76
2023/11/08 00:40:05;;;;;;;37.20;34.10;;;;;;;7.29;100.00;101113.50;5073575;28;20142;-76
2023/11/08 00:42:32;;;;;;;121.28;114.47;;;;;;;6.93;100.00;101102.66;5065489;28;20060;-76
2023/11/08 00:44:59;;;;;;;112.53;106.32;;;;;;;7.07;100.00;101094.81;5072314;28;20059;-74
2023/11/08 00:47:26;;;;;;;133.82;126.38;;;;;;;7.06;100.00;101090.53;5066787;28;20136;-74
2023/11/08 00:49:54;;;;;;;82.35;77.75;;;;;;;6.84;100.00;101081.59;5065007;28;20052;-74
2023/11/08 00:52:23;;;;;;;29.00;26.95;;;;;;;6.60;100.00;101082.50;5063157;28;20063;-75
2023/11/08 00:54:50;;;;;;;34.88;32.38;;;;;;;6.72;100.00;101082.97;5063404;28;20514;-75
2023/11/08 00:57:16;;;;;;;38.35;28.92;;;;;;;6.92;100.00;101087.81;5063981;28;20059;-74
2023/11/08 00:59:43;;;;;;;106.57;100.78;;;;;;;6.92;100.00;101090.44;5067497;28;20044;-74
2023/11/08 01:02:10;;;;;;;110.30;104.20;;;;;;;7.15;100.00;101087.88;5066561;28;20051;-76
2023/11/08 01:04:37;;;;;;;109.35;103.35;;;;;;;7.11;100.00;101075.00;5066403;28;20056;-74
2023/11/08 01:07:06;;;;;;;110.03;104.03;;;;;;;7.18;100.00;101066.38;5068027;28;20053;-74
2023/11/08 01:09:36;;;;;;;100.07;94.30;;;;;;;7.25;100.00;101054.09;5069751;28;20044;-74
2023/11/08 01:12:05;;;;;;;118.20;111.72;;;;;;;6.98;100.00;101048.31;5062504;28;20568;-74
2023/11/08 01:14:33;;;;;;;68.70;64.50;;;;;;;6.94;100.00;101040.94;5070996;28;20049;-75
2023/11/08 01:17:00;;;;;;;73.88;69.55;;;;;;;6.95;100.00;101045.22;5063449;28;20048;-75
2023/11/08 01:19:28;;;;;;;34.38;32.08;;;;;;;6.96;100.00;101039.78;5068750;28;20040;-74
2023/11/08 01:21:55;;;;;;;38.60;36.00;;;;;;;6.88;100.00;101053.00;5062198;28;20056;-74
2023/11/08 01:24:41;;;;;;;33.50;31.30;;;;;;;6.98;100.00;101043.03;5067475;28;20053;-74
2023/11/08 01:27:08;;;;;;;32.25;30.05;;;;;;;7.09;100.00;101031.25;5064697;28;20072;-74
2023/11/08 01:29:55;;;;;;;31.40;29.20;;;;;;;7.17;100.00;101020.66;5069396;28;20068;-74
2023/11/08 01:32:21;;;;;;;95.30;90.00;;;;;;;7.10;100.00;101007.31;5069778;28;20445;-75
2023/11/08 01:34:48;;;;;;;96.80;91.47;;;;;;;6.99;100.00;100999.81;5063914;28;20430;-75
2023/11/08 01:37:15;;;;;;;99.32;93.72;;;;;;;6.61;100.00;101004.97;5068893;28;20048;-75
2023/11/08 01:39:46;;;;;;;91.68;85.40;;;;;;;6.58;100.00;100999.22;5070583;28;20040;-76
2023/11/08 01:42:13;;;;;;;92.13;86.90;;;;;;;7.04;100.00;101012.47;5069477;28;20062;-75
2023/11/08 01:44:40;;;;;;;92.47;87.28;;;;;;;7.49;100.00;101005.53;5068697;28;20040;-74
2023/11/08 01:47:08;;;;;;;28.33;26.23;;;;;;;7.42;100.00;100994.03;5065468;28;20048;-74
2023/11/08 01:49:35;;;;;;;32.63;30.33;;;;;;;7.54;100.00;100977.56;5064931;28;20044;-75
2023/11/08 01:52:02;;;;;;;32.20;29.95;;;;;;;7.02;100.00;100967.75;5064351;28;20434;-75
2023/11/08 01:54:32;;;;;;;33.85;31.27;;;;;;;7.46;100.00;100969.69;5064254;28;20052;-74
2023/11/08 01:57:04;;;;;;;31.75;29.55;;;;;;;7.47;100.00;100962.59;5068786;28;20049;-74
2023/11/08 01:59:32;;;;;;;33.65;31.35;;;;;;;7.65;100.00;100967.53;5069205;28;20442;-74
2023/11/08 02:01:59;;;;;;;32.58;30.27;;;;;;;7.57;100.00;100964.00;5066496;28;20148;-75
2023/11/08 02:04:27;;;;;;;37.65;35.15;;;;;;;7.65;100.00;100962.25;5068502;28;20135;-75
2023/11/08 02:06:54;;;;;;;34.50;32.05;;;;;;;7.54;100.00;100961.72;5068347;28;20045;-76
2023/11/08 02:09:21;;;;;;;35.65;33.05;;;;;;;8.13;100.00;100955.59;5068337;28;20397;-76
2023/11/08 02:11:49;;;;;;;29.83;27.52;;;;;;;8.39;100.00;100955.16;5067612;28;20052;-74
2023/11/08 02:14:17;;;;;;;32.45;30.02;;;;;;;8.48;100.00;100955.88;5067913;28;20063;-74
2023/11/08 02:16:44;;;;;;;33.42;30.63;;;;;;;8.06;100.00;100943.31;5066403;28;20052;-74
2023/11/08 02:19:11;;;;;;;31.02;28.73;;;;;;;8.14;100.00;100944.03;5065656;28;20052;-74
2023/11/08 02:21:38;;;;;;;30.83;28.52;;;;;;;8.07;100.00;100948.41;5067569;28;20048;-75
2023/11/08 02:24:20;;;;;;;33.40;30.90;;;;;;;7.83;100.00;100938.94;5067684;28;20836;-74
2023/11/08 02:26:48;;;;;;;31.67;29.33;;;;;;;8.02;100.00;100932.28;5070125;28;20055;-74
2023/11/08 02:29:21;;;;;;;33.33;30.83;;;;;;;8.27;100.00;100948.66;5067811;28;20086;-75
2023/11/08 02:31:50;;;;;;;33.45;30.95;;;;;;;7.97;100.00;100959.28;5071511;28;20049;-74
2023/11/08 02:34:17;;;;;;;36.22;33.63;;;;;;;8.27;100.00;100961.91;5077655;28;20059;-74
2023/11/08 02:36:44;;;;;;;31.88;29.48;;;;;;;7.93;100.00;100965.13;5068772;28;20071;-75
2023/11/08 02:39:11;;;;;;;31.25;28.95;;;;;;;8.08;100.00;100960.66;5074191;28;20438;-75
2023/11/08 02:41:40;;;;;;;32.40;30.00;;;;;;;7.98;100.00;100960.91;5069062;28;20060;-75
2023/11/08 02:44:08;;;;;;;27.55;25.45;;;;;;;7.82;100.00;100962.94;5066075;28;20071;-75
2023/11/08 02:46:35;;;;;;;31.75;29.45;;;;;;;7.68;100.00;100964.53;5071234;28;20045;-74
2023/11/08 02:49:06;;;;;;;32.42;30.02;;;;;;;7.84;100.00;100960.91;5072138;28;20080;-75
2023/11/08 02:51:33;;;;;;;30.42;28.13;;;;;;;7.76;100.00;100954.69;5068967;28;20049;-74
2023/11/08 02:54:00;;;;;;;32.85;30.55;;;;;;;7.39;100.00;100946.84;5063595;28;20044;-75
2023/11/08 02:56:38;;;;;;;30.40;28.10;;;;;;;7.36;100.00;100945.34;5061881;28;20434;-75
2023/11/08 02:59:06;;;;;;;27.45;25.25;;;;;;;7.38;100.00;100940.69;5066290;28;20057;-74
2023/11/08 03:01:33;;;;;;;31.70;29.40;;;;;;;6.99;100.00;100949.63;5077864;28;20052;-75
2023/11/08 03:04:00;;;;;;;30.25;27.85;;;;;;;7.32;100.00;100947.53;5066709;28;20053;-75
2023/11/08 03:06:34;;;;;;;29.08;26.90;;;;;;;7.37;100.00;100946.19;5064521;28;20044;-75
2023/11/08 03:09:01;;;;;;;30.20;27.95;;;;;;;7.04;100.00;100943.81;5069339;28;20045;-75
2023/11/08 03:11:28;;;;;;;35.13;32.53;;;;;;;7.24;100.00;100944.97;5067845;28;20071;-74
2023/11/08 03:13:55;;;;;;;32.47;30.17;;;;;;;7.29;100.00;100950.53;5068750;28;20478;-75
2023/11/08 03:16:23;;;;;;;33.75;31.27;;;;;;;7.36;100.00;100940.06;5069428;28;20052;-74
2023/11/08 03:18:52;;;;;;;35.85;33.15;;;;;;;7.45;100.00;100939.00;5068410;28;20494;-74
2023/11/08 03:21:19;;;;;;;31.55;29.25;;;;;;;7.43;100.00;100927.78;5068658;28;20083;-76
2023/11/08 03:23:46;;;;;;;31.88;29.38;;;;;;;7.04;100.00;100935.88;5071032;28;20053;-74
2023/11/08 03:26:15;;;;;;;34.45;31.83;;;;;;;7.18;100.00;100927.19;5072657;28;20045;-75
2023/11/08 03:28:43;;;;;;;34.03;31.52;;;;;;;7.20;100.00;100934.91;5068099;28;20056;-76
2023/11/08 03:31:12;;;;;;;31.92;29.52;;;;;;;6.81;100.00;100928.78;5063366;28;20045;-75
2023/11/08 03:33:40;;;;;;;32.28;29.85;;;;;;;7.05;100.00;100935.72;5069130;28;20496;-75
2023/11/08 03:36:08;;;;;;;53.38;49.97;;;;;;;7.24;100.00;100938.88;5070830;28;20152;-74
2023/11/08 03:38:35;;;;;;;65.75;61.85;;;;;;;7.46;100.00;100935.34;5067785;28;20056;-75
2023/11/08 03:41:01;;;;;;;66.63;62.53;;;;;;;7.52;100.00;100926.69;5065062;28;20049;-74
2023/11/08 03:43:28;;;;;;;58.60;55.10;;;;;;;7.53;100.00;100920.44;5071831;28;20506;-76
2023/11/08 03:45:55;;;;;;;56.97;53.58;;;;;;;7.29;100.00;100924.13;5071052;28;20047;-74
2023/11/08 03:48:22;;;;;;;52.38;49.17;;;;;;;7.29;100.00;100920.63;5066235;28;20060;-75
2023/11/08 03:50:50;;;;;;;51.55;48.45;;;;;;;7.22;100.00;100909.97;5065791;28;20059;-74
2023/11/08 03:53:17;;;;;;;50.88;47.47;;;;;;;7.29;100.00;100899.50;5070005;28;20052;-75
2023/11/08 03:55:44;;;;;;;54.22;50.92;;;;;;;7.37;100.00;100890.69;5068404;28;20438;-74
2023/11/08 03:58:11;;;;;;;55.35;51.80;;;;;;;7.83;100.00;100895.81;5070302;28;20078;-75
2023/11/08 04:00:38;;;;;;;52.90;49.60;;;;;;;7.91;100.00;100907.09;5068147;28;20145;-74
2023/11/08 04:03:05;;;;;;;49.60;46.50;;;;;;;8.02;100.00;100898.72;5064660;28;20063;-74
2023/11/08 04:05:32;;;;;;;46.70;43.63;;;;;;;8.34;100.00;100891.34;5069091;28;20048;-74
2023/11/08 04:08:02;;;;;;;43.65;40.65;;;;;;;8.11;100.00;100891.50;5062749;28;20494;-75
2023/11/08 04:10:30;;;;;;;59.28;55.30;;;;;;;8.02;100.00;100890.78;5067467;28;20448;-74
2023/11/08 04:12:57;;;;;;;53.63;50.22;;;;;;;8.14;100.00;100879.69;5069448;28;20060;-74
2023/11/08 04:15:24;;;;;;;55.80;52.35;;;;;;;8.33;100.00;100880.94;5067443;28;20506;-75
2023/11/08 04:17:55;;;;;;;27.35;25.25;;;;;;;8.34;100.00;100878.09;5066367;28;20044;-75
2023/11/08 04:20:23;;;;;;;27.08;24.98;;;;;;;8.63;100.00;100879.88;5065491;28;20956;-75
2023/11/08 04:22:50;;;;;;;26.30;24.17;;;;;;;8.53;100.00;100882.00;5069789;28;20040;-74
2023/11/08 04:25:21;;;;;;;26.88;24.70;;;;;;;8.06;100.00;100883.28;5067817;28;20147;-74
2023/11/08 04:27:48;;;;;;;25.33;23.27;;;;;;;8.13;100.00;100881.53;5069739;28;20044;-76
2023/11/08 04:30:15;;;;;;;24.98;23.00;;;;;;;8.51;100.00;100884.03;5064050;28;20044;-74
2023/11/08 04:32:43;;;;;;;25.50;23.48;;;;;;;8.08;100.00;100888.38;5069826;28;20054;-75
2023/11/08 04:35:10;;;;;;;24.70;22.80;;;;;;;8.15;100.00;100884.81;5064488;28;20051;-74
2023/11/08 04:37:39;;;;;;;25.15;23.15;;;;;;;8.37;100.00;100888.31;5067147;28;20053;-74
2023/11/08 04:40:08;;;;;;;26.25;24.23;;;;;;;8.48;100.00;100892.34;5066246;28;20483;-74
2023/11/08 04:42:36;;;;;;;26.42;24.23;;;;;;;8.65;100.00;100890.25;5061922;28;20149;-74
2023/11/08 04:45:04;;;;;;;27.00;24.90;;;;;;;8.66;100.00;100890.09;5059724;28;20049;-74
2023/11/08 04:47:31;;;;;;;24.73;22.73;;;;;;;8.06;100.00;100893.88;5063838;28;20048;-75
2023/11/08 04:49:58;;;;;;;23.90;22.00;;;;;;;8.30;100.00;100898.00;5067172;28;20044;-75
2023/11/08 04:52:25;;;;;;;24.13;22.02;;;;;;;8.35;100.00;100902.72;5068041;28;20067;-75
2023/11/08 04:54:52;;;;;;;24.55;22.65;;;;;;;8.41;100.00;100902.88;5064351;28;20067;-76
2023/11/08 04:57:19;;;;;;;24.90;23.00;;;;;;;8.54;100.00;100898.72;5065899;28;20067;-75
2023/11/08 04:59:51;;;;;;;23.13;21.33;;;;;;;8.40;100.00;100895.91;5066925;28;20057;-76
2023/11/08 05:02:19;;;;;;;22.45;20.65;;;;;;;8.40;100.00;100900.38;5065952;28;20135;-76
2023/11/08 05:04:49;;;;;;;21.02;19.45;;;;;;;8.45;100.00;100904.13;5063903;28;20309;-75
2023/11/08 05:07:23;;;;;;;20.33;18.73;;;;;;;8.88;100.00;100900.66;5066868;28;20501;-75
2023/11/08 05:09:58;;;;;;;20.60;19.10;;;;;;;8.70;100.00;100901.91;5067077;28;20048;-75
2023/11/08 05:12:26;;;;;;;22.33;20.73;;;;;;;8.84;100.00;100892.28;5060905;28;20049;-76
2023/11/08 05:14:56;;;;;;;20.38;18.95;;;;;;;9.12;100.00;100886.19;5064316;28;20473;-76
2023/11/08 05:17:27;;;;;;;30.00;28.10;;;;;;;8.82;100.00;100896.94;5064050;28;20060;-76
2023/11/08 05:19:54;;;;;;;33.53;31.33;;;;;;;8.71;100.00;100900.09;5066515;28;20048;-75
2023/11/08 05:22:21;;;;;;;33.03;30.92;;;;;;;8.97;100.00;100906.66;5062752;28;20068;-75
2023/11/08 05:24:48;;;;;;;32.92;30.73;;;;;;;9.16;100.00;100912.09;5067117;28;20060;-76
2023/11/08 05:27:15;;;;;;;35.83;33.63;;;;;;;9.03;100.00;100914.66;5067445;28;20064;-76
2023/11/08 05:29:42;;;;;;;26.13;24.40;;;;;;;9.13;100.00;100914.31;5070819;28;20600;-75
2023/11/08 05:32:11;;;;;;;22.40;20.80;;;;;;;9.10;100.00;100928.78;5065831;28;20131;-75
2023/11/08 05:34:38;;;;;;;22.83;21.23;;;;;;;9.36;100.00;100930.00;5061175;28;20075;-76
2023/11/08 05:37:06;;;;;;;24.08;22.38;;;;;;;9.71;100.00;100930.03;5068706;28;20052;-75
2023/11/08 05:39:33;;;;;;;22.23;20.52;;;;;;;9.56;100.00;100930.97;5067013;28;20052;-74
2023/11/08 05:42:00;;;;;;;24.83;22.92;;;;;;;9.70;100.00;100937.16;5068410;28;20044;-74
2023/11/08 05:44:29;;;;;;;24.10;22.30;;;;;;;9.73;100.00;100935.97;5068228;28;20477;-75
2023/11/08 05:46:56;;;;;;;23.70;21.90;;;;;;;9.48;100.00;100939.06;5060778;28;20066;-74
2023/11/08 05:49:27;;;;;;;22.60;20.90;;;;;;;9.81;100.00;100936.63;5057141;28;20052;-74
2023/11/08 05:51:54;;;;;;;23.45;21.52;;;;;;;9.62;100.00;100953.22;5065220;28;20048;-76
2023/11/08 05:54:24;;;;;;;24.80;21.60;;;;;;;9.94;100.00;100945.69;5065460;28;20523;-76
2023/11/08 05:56:53;;;;;;;24.77;22.98;;;;;;;9.96;100.00;100938.34;5064793;28;20044;-76
2023/11/08 06:13:45;;;;;;;32.15;29.45;;;;;;;9.56;100.00;100981.38;5091622;27;20408;-75
2023/11/08 06:16:12;;;;;;;29.48;26.98;;;;;;;10.27;100.00;100989.16;5091919;28;20058;-75
2023/11/08 06:18:40;;;;;;;26.90;24.90;;;;;;;10.35;100.00;100997.97;5088138;28;20074;-76
2023/11/08 06:21:08;;;;;;;28.10;25.38;;;;;;;10.39;100.00;101013.31;5093240;28;20047;-75
2023/11/08 06:23:36;;;;;;;29.45;27.00;;;;;;;10.80;100.00;101044.31;5088522;28;20055;-75
2023/11/08 06:26:03;;;;;;;33.05;30.45;;;;;;;11.46;100.00;101060.41;5077683;28;20055;-75
2023/11/08 06:28:29;;;;;;;33.10;30.40;;;;;;;11.98;100.00;101081.97;5074884;28;20432;-75
2023/11/08 06:30:59;;;;;;;32.03;29.33;;;;;;;12.55;100.00;101115.03;5068809;28;20056;-75
2023/11/08 06:33:26;;;;;;;28.75;26.55;;;;;;;11.77;100.00;101098.09;5074696;28;20099;-75
2023/11/08 06:35:53;;;;;;;36.55;33.85;;;;;;;12.01;100.00;101120.66;5071393;28;20416;-75
2023/11/08 06:38:20;;;;;;;35.95;33.25;;;;;;;12.45;100.00;101116.50;5078732;28;20052;-75
2023/11/08 06:40:47;;;;;;;32.55;29.95;;;;;;;12.60;100.00;101122.41;5072557;28;20520;-75
2023/11/08 06:43:14;;;;;;;32.80;30.20;;;;;;;12.61;100.00;101126.72;5075486;28;20045;-75
2023/11/08 06:45:41;;;;;;;32.97;30.15;;;;;;;11.79;100.00;101120.81;5068570;28;20126;-75
2023/11/08 06:48:10;;;;;;;33.50;30.60;;;;;;;12.36;100.00;101119.38;5074626;28;20444;-75
2023/11/08 06:50:37;;;;;;;31.98;29.48;;;;;;;12.03;100.00;101114.09;5068278;28;20441;-75
2023/11/08 06:53:03;;;;;;;35.88;32.97;;;;;;;11.85;100.00;101097.94;5085284;28;20044;-75
2023/11/08 06:55:32;;;;;;;38.17;35.47;;;;;;;12.37;100.00;101101.56;5079547;28;20071;-75
2023/11/08 06:57:59;;;;;;;35.75;33.08;;;;;;;11.97;100.00;101090.97;5077101;28;20406;-75
2023/11/08 07:00:26;;;;;;;37.10;32.80;;;;;;;11.37;100.00;101085.56;5082894;28;20056;-75
2023/11/08 07:02:53;;;;;;;34.92;32.22;;;;;;;11.48;100.00;101086.81;5079411;28;20526;-75
2023/11/08 07:05:22;;;;;;;34.33;31.63;;;;;;;12.05;100.00;101085.44;5079835;28;20050;-75
2023/11/08 07:07:49;;;;;;;34.17;30.75;;;;;;;11.45;100.00;101066.78;5075240;28;20139;-75
2023/11/08 07:10:16;;;;;;;34.03;31.33;;;;;;;11.50;100.00;101060.00;5078715;28;20421;-75
2023/11/08 07:12:43;;;;;;;34.70;31.75;;;;;;;11.92;100.00;101061.47;5077100;28;20044;-75
2023/11/08 07:15:12;;;;;;;30.95;28.45;;;;;;;11.62;100.00;101058.41;5065964;28;20523;-75
2023/11/08 07:17:39;;;;;;;34.00;31.40;;;;;;;11.76;100.00;101053.88;5065288;28;20040;-75
2023/11/08 07:20:07;;;;;;;32.45;29.95;;;;;;;12.21;100.00;101057.56;5065753;28;20450;-76
2023/11/08 07:22:37;;;;;;;31.35;28.98;;;;;;;12.66;100.00;101056.81;5064882;28;20655;-75
2023/11/08 07:25:04;;;;;;;33.15;30.45;;;;;;;12.38;100.00;101053.41;5066621;28;20422;-75
2023/11/08 07:27:31;;;;;;;31.45;29.05;;;;;;;12.58;100.00;101044.53;5062852;28;20422;-75
2023/11/08 07:29:58;;;;;;;34.35;29.65;;;;;;;13.20;100.00;101040.31;5061722;28;20052;-75
2023/11/08 07:32:25;;;;;;;30.60;28.30;;;;;;;13.31;100.00;101030.00;5067548;28;20045;-75
2023/11/08 07:34:52;;;;;;;41.05;37.88;;;;;;;13.12;100.00;101023.75;5068133;28;20044;-75
2023/11/08 07:37:19;;;;;;;32.45;30.05;;;;;;;13.31;100.00;101030.00;5067160;28;20482;-76
2023/11/08 07:39:47;;;;;;;65.95;59.88;;;;;;;13.12;100.00;101037.91;5068390;28;20063;-76
2023/11/08 07:42:14;;;;;;;56.20;50.90;;;;;;;13.07;100.00;101037.72;5067147;28;20490;-76
2023/11/08 07:44:41;;;;;;;65.22;57.75;;;;;;;13.00;100.00;101044.94;5065850;28;20536;-76
2023/11/08 07:47:09;;;;;;;54.00;48.85;;;;;;;13.10;100.00;101048.00;5066360;28;20594;-76
2023/11/08 07:49:35;;;;;;;49.63;44.70;;;;;;;13.07;100.00;101038.56;5065680;28;20717;-76
2023/11/08 07:52:03;;;;;;;45.42;41.80;;;;;;;13.13;100.00;101044.91;5065721;28;20067;-76
2023/11/08 07:54:32;;;;;;;44.45;41.17;;;;;;;13.33;100.00;101043.97;5066638;28;20513;-76
2023/11/08 07:57:01;;;;;;;46.63;43.45;;;;;;;13.43;100.00;101058.44;5067967;28;20417;-76
2023/11/08 07:59:28;;;;;;;49.10;45.75;;;;;;;13.55;100.00;101055.91;5065216;28;20040;-75
2023/11/08 08:01:55;;;;;;;50.38;46.85;;;;;;;14.78;100.00;101043.56;5064932;28;20044;-75
2023/11/08 08:04:25;;;;;;;50.08;46.97;;;;;;;14.41;100.00;101044.41;5067978;28;20517;-76
2023/11/08 08:06:52;;;;;;;55.45;51.63;;;;;;;13.98;100.00;101066.63;5066236;28;20071;-75
2023/11/08 08:09:19;;;;;;;57.70;53.58;;;;;;;13.90;100.00;101071.44;5066406;28;20409;-76
2023/11/08 08:11:46;;;;;;;53.05;48.03;;;;;;;13.97;100.00;101069.50;5065294;28;20048;-76
2023/11/08 08:14:14;;;;;;;47.80;44.47;;;;;;;14.07;100.00;101061.00;5067018;28;20433;-76
2023/11/08 08:16:41;;;;;;;43.72;39.55;;;;;;;13.88;100.00;101060.16;5067200;28;20433;-76
2023/11/08 08:19:08;;;;;;;37.00;34.45;;;;;;;14.06;100.00;101064.72;5066580;28;20386;-76
2023/11/08 08:21:35;;;;;;;36.40;33.95;;;;;;;13.83;100.00;101071.50;5065362;28;20053;-76
2023/11/08 08:24:02;;;;;;;36.90;34.45;;;;;;;14.19;100.00;101048.53;5064671;28;20049;-76
2023/11/08 08:26:29;;;;;;;42.45;39.80;;;;;;;14.26;100.00;101054.66;5061659;28;20131;-76
2023/11/08 08:28:56;;;;;;;38.30;35.90;;;;;;;14.22;100.00;101066.81;5064167;28;20045;-76
2023/11/08 08:31:26;;;;;;;37.05;34.75;;;;;;;14.14;100.00;101061.75;5065818;28;20055;-76
2023/11/08 08:33:56;;;;;;;37.55;35.25;;;;;;;14.23;100.00;101051.59;5064891;28;20044;-76
2023/11/08 08:36:23;;;;;;;33.83;31.55;;;;;;;14.25;100.00;101061.03;5066931;28;20075;-76
2023/11/08 08:38:50;;;;;;;34.67;32.13;;;;;;;14.24;100.00;101054.03;5066504;28;20133;-76
2023/11/08 08:41:18;;;;;;;36.80;34.10;;;;;;;14.30;100.00;101058.50;5065708;28;20083;-76
2023/11/08 08:43:45;;;;;;;33.90;30.80;;;;;;;14.43;100.00;101046.84;5061106;28;20052;-75
2023/11/08 08:46:12;;;;;;;33.70;31.60;;;;;;;14.60;100.00;101047.91;5067631;28;20048;-76
2023/11/08 08:48:42;;;;;;;35.50;33.30;;;;;;;14.69;100.00;101036.91;5065598;28;20425;-76
2023/11/08 08:51:09;;;;;;;34.00;31.90;;;;;;;14.75;100.00;101033.34;5065825;28;21105;-76
2023/11/08 08:53:36;;;;;;;31.67;29.77;;;;;;;14.69;100.00;101029.69;5064011;28;20048;-76
2023/11/08 08:56:03;;;;;;;32.33;30.33;;;;;;;14.78;100.00;101028.34;5062231;28;20048;-76
2023/11/08 08:58:32;;;;;;;31.98;30.05;;;;;;;14.66;100.00;101030.16;5062432;28;20052;-76
2023/11/08 09:00:59;;;;;;;29.20;27.35;;;;;;;14.78;100.00;101033.69;5065547;28;20463;-76
2023/11/08 09:03:27;;;;;;;28.40;26.60;;;;;;;14.77;100.00;101041.97;5064977;28;20055;-77
2023/11/08 09:05:58;;;;;;;30.35;28.27;;;;;;;14.91;100.00;101037.22;5065762;28;20136;-76
2023/11/08 09:08:27;;;;;;;42.35;27.38;;;;;;;14.92;100.00;101045.03;5064484;28;20064;-76
2023/11/08 09:10:54;;;;;;;31.77;29.67;;;;;;;15.05;100.00;101044.03;5061752;28;20048;-75
2023/11/08 09:13:21;;;;;;;34.10;31.90;;;;;;;15.31;100.00;101056.19;5064861;28;20052;-76
2023/11/08 09:15:48;;;;;;;28.42;26.52;;;;;;;15.44;100.00;101050.66;5065387;28;20532;-76
2023/11/08 09:18:15;;;;;;;30.23;28.02;;;;;;;15.60;100.00;101049.16;5065466;28;20048;-76
2023/11/08 09:20:42;;;;;;;27.90;26.00;;;;;;;15.54;100.00;101045.53;5064505;28;20570;-76
2023/11/08 09:23:11;;;;;;;26.27;24.40;;;;;;;15.52;100.00;101050.34;5063642;28;20044;-76
2023/11/08 09:25:38;;;;;;;26.75;24.85;;;;;;;15.44;100.00;101039.16;5065782;28;20059;-76
2023/11/08 09:28:05;;;;;;;29.40;27.40;;;;;;;15.46;100.00;101031.69;5065639;28;20052;-76
2023/11/08 09:30:33;;;;;;;32.30;30.20;;;;;;;15.44;100.00;101036.47;5064994;28;20420;-75
2023/11/08 09:33:00;;;;;;;32.35;30.15;;;;;;;15.35;100.00;101027.94;5063470;28;20044;-76
2023/11/08 09:35:27;;;;;;;22.30;20.38;;;;;;;15.20;100.00;101027.56;5062062;28;20052;-76
2023/11/08 09:37:57;;;;;;;22.92;20.70;;;;;;;15.45;100.00;101040.75;5065301;28;20582;-76
2023/11/08 09:40:25;;;;;;;21.50;19.90;;;;;;;15.55;100.00;101047.19;5061285;28;20436;-76
2023/11/08 09:42:56;;;;;;;32.38;30.42;;;;;;;15.55;100.00;101051.72;5063883;28;20543;-76
2023/11/08 09:45:27;;;;;;;29.15;27.35;;;;;;;15.64;100.00;101052.19;5061951;28;20505;-75
2023/11/08 09:47:54;;;;;;;25.90;24.30;;;;;;;15.62;100.00;101057.78;5064316;28;20068;-75
2023/11/08 09:50:24;;;;;;;26.30;24.60;;;;;;;15.50;100.00;101073.84;5064902;28;20052;-75
2023/11/08 09:52:51;;;;;;;32.00;29.92;;;;;;;15.11;100.00;101059.19;5063629;28;20044;-76
2023/11/08 09:55:19;;;;;;;31.23;28.75;;;;;;;15.32;100.00;101069.38;5064019;28;20058;-76
2023/11/08 09:57:50;;;;;;;30.65;28.75;;;;;;;15.17;100.00;101063.63;5064948;28;20582;-76
2023/11/08 10:00:20;;;;;;;36.10;34.10;;;;;;;14.88;100.00;101059.88;5064507;28;20461;-76
2023/11/08 10:02:48;;;;;;;30.75;28.90;;;;;;;14.92;100.00;101071.78;5062850;28;20045;-76
2023/11/08 10:05:15;;;;;;;32.47;30.67;;;;;;;15.10;100.00;101068.25;5062811;28;20593;-76
2023/11/08 10:07:42;;;;;;;31.10;29.30;;;;;;;15.23;100.00;101068.06;5062297;28;20059;-76
2023/11/08 10:10:09;;;;;;;28.95;27.25;;;;;;;15.02;100.00;101073.91;5065408;28;20442;-76
2023/11/08 10:12:36;;;;;;;26.92;24.80;;;;;;;14.37;100.00;101077.13;5063489;28;20512;-75
2023/11/08 10:15:06;;;;;;;27.13;25.42;;;;;;;14.51;100.00;101078.66;5066156;28;20052;-75
2023/11/08 10:17:37;;;;;;;27.80;26.00;;;;;;;14.60;100.00;101077.31;5065149;28;20049;-75
2023/11/08 10:20:08;;;;;;;29.88;27.80;;;;;;;14.75;100.00;101078.78;5064585;28;20181;-76
2023/11/08 10:22:35;;;;;;;30.55;28.55;;;;;;;14.44;100.00;101073.34;5065553;28;20041;-75
2023/11/08 10:25:04;;;;;;;33.97;31.88;;;;;;;14.13;100.00;101082.31;5063699;28;20048;-76
2023/11/08 10:27:32;;;;;;;35.95;33.75;;;;;;;14.43;100.00;101077.06;5062971;28;20083;-76
2023/11/08 10:30:16;;;;;;;39.20;36.90;;;;;;;14.19;100.00;101073.41;5063638;28;20056;-76
2023/11/08 10:32:44;;;;;;;39.33;36.92;;;;;;;13.78;100.00;101068.66;5062536;28;20106;-76
2023/11/08 10:35:15;;;;;;;38.35;35.95;;;;;;;13.93;100.00;101065.66;5063572;28;20119;-76
2023/11/08 10:37:43;;;;;;;37.33;34.83;;;;;;;13.95;100.00;101076.94;5062070;28;20053;-76
2023/11/08 10:40:13;;;;;;;39.05;36.65;;;;;;;14.00;100.00;101073.59;5061034;28;20057;-75
2023/11/08 10:42:41;;;;;;;32.00;29.77;;;;;;;14.09;100.00;101085.63;5059005;28;20095;-75
2023/11/08 10:45:08;;;;;;;33.17;30.88;;;;;;;14.31;100.00;101070.84;5057275;28;20084;-75
2023/11/08 10:47:37;;;;;;;28.25;26.17;;;;;;;14.38;100.00;101058.22;5058944;28;20049;-76
2023/11/08 10:50:05;;;;;;;29.52;27.42;;;;;;;14.00;100.00;101055.72;5062224;28;20133;-76
2023/11/08 10:52:33;;;;;;;30.60;28.45;;;;;;;13.96;100.00;101060.69;5065593;28;20048;-75
2023/11/08 10:55:01;;;;;;;30.23;28.17;;;;;;;13.93;100.00;101049.63;5062480;28;20631;-75
2023/11/08 10:57:30;;;;;;;30.95;28.75;;;;;;;13.96;100.00;101041.19;5062376;28;20058;-75
2023/11/08 11:00:01;;;;;;;32.28;30.08;;;;;;;14.08;100.00;101036.75;5063538;28;20409;-76
2023/11/08 11:02:34;;;;;;;33.92;31.63;;;;;;;13.79;100.00;101056.13;5064204;28;20049;-76
2023/11/08 11:05:08;;;;;;;36.00;33.40;;;;;;;13.94;100.00;101068.09;5062175;28;20463;-76
2023/11/08 11:07:40;;;;;;;36.53;33.70;;;;;;;13.97;100.00;101075.66;5062573;28;20444;-75
2023/11/08 11:10:09;;;;;;;35.30;32.90;;;;;;;13.87;100.00;101080.69;5062309;28;20536;-76
2023/11/08 11:12:47;;;;;;;30.52;28.42;;;;;;;14.28;100.00;101076.63;5062673;28;20493;-76
2023/11/08 11:15:21;;;;;;;30.67;28.58;;;;;;;13.92;100.00;101078.19;5066771;28;20437;-75
2023/11/08 11:17:55;;;;;;;34.10;31.80;;;;;;;13.79;100.00;101077.47;5066074;28;20521;-75
2023/11/08 11:20:28;;;;;;;34.20;31.85;;;;;;;13.62;100.00;101079.88;5066007;28;20064;-74
2023/11/08 11:22:58;;;;;;;30.85;28.65;;;;;;;14.09;100.00;101075.75;5065663;28;20041;-75